Terminal Aerodrome Forecast
Issued by NWS Cleveland, OH

Home | Current Version | Previous Version | Graphics & Text | Print | Product List | Glossary On
Versions: 1 2 3 4 5 6 7 8 9 10 11 12 13 14 15 16 17 18 19 20 21 22 23 24 25 26
000
FTUS41 KCLE 211849 AAA
TAFYNG
TAF AMD
KYNG 211849Z 2119/2218 19005KT 1SM BR OVC003
      TEMPO 2120/2122 3SM BR SCT003 OVC010
     FM220200 17007KT 3SM BR OVC003
      TEMPO 2208/2212 -SHRA
     FM221600 17007KT 5SM BR OVC015=

USA.gov is the U.S. government's official web portal to all federal, state and local government web resources and services.